createdAt,value
2018-02-24T00:01:15.032Z,11.47
2018-02-24T00:03:49.519Z,13.20
2018-02-24T00:06:23.667Z,11.17
2018-02-24T00:08:57.460Z,13.10
2018-02-24T00:11:31.276Z,12.70
2018-02-24T00:14:05.047Z,12.07
2018-02-24T00:16:39.878Z,14.20
2018-02-24T00:19:14.403Z,10.90
2018-02-24T00:21:49.141Z,13.70
2018-02-24T00:24:23.107Z,11.87
2018-02-24T00:26:56.918Z,12.63
2018-02-24T00:29:30.428Z,16.37
2018-02-24T00:32:05.203Z,13.97
2018-02-24T00:34:40.120Z,12.40
2018-02-24T00:37:15.333Z,12.50
2018-02-24T00:39:49.396Z,13.63
2018-02-24T00:42:23.344Z,12.40
2018-02-24T00:44:57.225Z,13.30
2018-02-24T00:47:31.022Z,10.43
2018-02-24T00:50:04.660Z,7.20
2018-02-24T00:52:38.559Z,12.70
2018-02-24T00:55:13.791Z,12.47
2018-02-24T00:57:47.988Z,10.37
2018-02-24T01:00:21.713Z,9.97
2018-02-24T01:02:55.344Z,10.87
2018-02-24T01:05:28.979Z,12.30
2018-02-24T01:08:02.615Z,13.30
2018-02-24T01:10:36.262Z,12.80
2018-02-24T01:13:09.941Z,13.53
2018-02-24T01:15:44.486Z,14.30
2018-02-24T01:18:19.027Z,9.77
2018-02-24T01:20:52.925Z,12.93
2018-02-24T01:23:28.564Z,10.50
2018-02-24T01:26:03.051Z,11.10
2018-02-24T01:28:36.919Z,13.60
2018-02-24T01:31:10.800Z,13.23
2018-02-24T01:33:44.529Z,10.03
2018-02-24T01:36:18.363Z,12.40
2018-02-24T01:38:52.013Z,13.90
2018-02-24T01:41:25.581Z,10.80
2018-02-24T01:43:59.934Z,10.00
2018-02-24T01:46:34.640Z,14.90
2018-02-24T01:49:08.502Z,12.07
2018-02-24T01:51:42.243Z,12.23
2018-02-24T01:54:16.170Z,13.17
2018-02-24T01:56:50.611Z,11.83
2018-02-24T01:59:24.436Z,11.13
2018-02-24T02:01:58.917Z,9.53
2018-02-24T02:04:33.728Z,13.10
2018-02-24T02:07:07.503Z,11.37
2018-02-24T02:09:41.461Z,12.70
2018-02-24T02:12:15.187Z,14.20
2018-02-24T02:14:48.685Z,12.87
2018-02-24T02:17:22.355Z,10.70
2018-02-24T02:19:55.979Z,11.33
2018-02-24T02:22:29.740Z,12.07
2018-02-24T02:25:04.202Z,10.30
2018-02-24T02:27:38.128Z,12.60
2018-02-24T02:30:11.794Z,11.17
2018-02-24T02:32:45.574Z,11.80
2018-02-24T02:35:20.220Z,9.83
2018-02-24T02:37:53.999Z,11.27
2018-02-24T02:40:28.563Z,13.80
2018-02-24T02:43:02.549Z,11.03
2018-02-24T02:45:36.163Z,9.77
2018-02-24T02:48:09.991Z,12.90
2018-02-24T02:50:43.766Z,12.43
2018-02-24T02:53:17.667Z,12.70
2018-02-24T02:55:52.097Z,12.53
2018-02-24T02:58:26.724Z,14.87
2018-02-24T03:01:00.601Z,12.20
2018-02-24T03:03:34.340Z,11.90
2018-02-24T03:06:08.263Z,13.20
2018-02-24T03:08:41.830Z,12.17
2018-02-24T03:11:15.570Z,13.97
2018-02-24T03:13:49.629Z,13.20
2018-02-24T03:16:24.178Z,11.93
2018-02-24T03:18:57.903Z,13.10
2018-02-24T03:21:31.413Z,13.20
2018-02-24T03:24:05.211Z,14.17
2018-02-24T03:26:39.678Z,14.67
2018-02-24T03:29:13.384Z,12.67
2018-02-24T03:31:47.218Z,11.73
2018-02-24T03:34:21.728Z,11.87
2018-02-24T03:36:55.427Z,13.13
2018-02-24T03:39:29.184Z,11.47
2018-02-24T03:42:02.960Z,12.97
2018-02-24T03:44:36.759Z,13.70
2018-02-24T03:47:12.036Z,12.63
2018-02-24T03:49:47.501Z,12.10
2018-02-24T03:52:21.045Z,11.30
2018-02-24T03:54:55.454Z,12.10
2018-02-24T03:57:29.444Z,12.00
2018-02-24T04:00:03.230Z,8.90
2018-02-24T04:02:36.812Z,11.40
2018-02-24T04:05:11.303Z,11.33
2018-02-24T04:07:45.268Z,12.30
2018-02-24T04:10:19.191Z,12.20
2018-02-24T04:12:53.676Z,11.43
2018-02-24T04:15:27.542Z,9.90
2018-02-24T04:18:01.168Z,12.57
2018-02-24T04:20:35.107Z,10.50
2018-02-24T04:23:09.805Z,11.10
2018-02-24T04:25:44.827Z,9.93
2018-02-24T04:28:18.648Z,10.47
2018-02-24T04:30:52.859Z,10.33
2018-02-24T04:33:28.067Z,9.80
2018-02-24T04:36:01.718Z,11.20
2018-02-24T04:38:35.411Z,14.53
2018-02-24T04:41:10.540Z,13.30
2018-02-24T04:43:45.583Z,10.87
2018-02-24T04:46:20.389Z,12.33
2018-02-24T04:48:54.227Z,9.93
2018-02-24T04:51:28.186Z,11.03
2018-02-24T04:54:02.689Z,12.63
2018-02-24T04:56:36.456Z,9.70
2018-02-24T04:59:10.464Z,11.93
2018-02-24T05:01:45.055Z,14.60
2018-02-24T05:04:18.585Z,14.00
2018-02-24T05:06:52.131Z,12.70
2018-02-24T05:09:25.882Z,13.37
2018-02-24T05:11:59.585Z,12.97
2018-02-24T05:14:34.283Z,13.50
2018-02-24T05:17:08.228Z,12.43
2018-02-24T05:19:41.869Z,11.30
2018-02-24T05:22:15.556Z,12.80
2018-02-24T05:24:49.566Z,11.60
2018-02-24T05:27:24.167Z,12.37
2018-02-24T05:29:57.767Z,12.30
2018-02-24T05:32:31.428Z,11.80
2018-02-24T05:35:05.066Z,13.30
2018-02-24T05:37:38.942Z,12.43
2018-02-24T05:40:13.102Z,10.50
2018-02-24T05:42:47.627Z,13.47
2018-02-24T05:45:21.261Z,12.53
2018-02-24T05:47:55.610Z,6.87
2018-02-24T05:50:30.298Z,13.37
2018-02-24T05:53:04.116Z,11.27
2018-02-24T05:55:38.649Z,14.73
2018-02-24T05:58:12.327Z,10.03
2018-02-24T06:00:45.924Z,12.70
2018-02-24T06:03:20.295Z,12.33
2018-02-24T06:05:54.133Z,12.80
2018-02-24T06:08:27.848Z,10.60
2018-02-24T06:11:01.539Z,12.07
2018-02-24T06:13:36.144Z,10.63
2018-02-24T06:16:10.534Z,11.90
2018-02-24T06:18:45.208Z,13.10
2018-02-24T06:21:19.491Z,10.67
2018-02-24T06:23:53.220Z,11.77
2018-02-24T06:26:27.230Z,10.37
2018-02-24T06:29:01.598Z,11.80
2018-02-24T06:31:35.960Z,11.80
2018-02-24T06:34:10.007Z,11.23
2018-02-24T06:36:44.364Z,12.00
2018-02-24T06:39:19.226Z,12.13
2018-02-24T06:41:53.087Z,12.70
2018-02-24T06:44:27.718Z,13.33
2018-02-24T06:47:01.513Z,11.30
2018-02-24T06:49:36.079Z,10.10
2018-02-24T06:52:10.199Z,11.77
2018-02-24T06:54:44.454Z,14.30
2018-02-24T06:57:18.800Z,12.53
2018-02-24T06:59:52.532Z,8.80
2018-02-24T07:02:27.149Z,8.20
2018-02-24T07:05:01.770Z,11.27
2018-02-24T07:07:35.906Z,10.00
2018-02-24T07:10:10.319Z,10.87
2018-02-24T07:12:44.009Z,10.47
2018-02-24T07:15:17.583Z,8.80
2018-02-24T07:17:52.173Z,11.23
2018-02-24T07:20:26.164Z,11.70
2018-02-24T07:23:00.560Z,9.17
2018-02-24T07:25:34.420Z,7.07
2018-02-24T07:28:08.991Z,11.50
2018-02-24T07:30:43.031Z,11.50
2018-02-24T07:33:17.539Z,11.20
2018-02-24T07:35:51.367Z,9.73
2018-02-24T07:38:25.249Z,11.37
2018-02-24T07:40:58.842Z,10.37
2018-02-24T07:43:32.411Z,10.20
2018-02-24T07:46:06.128Z,10.80
2018-02-24T07:48:39.782Z,11.27
2018-02-24T07:51:13.553Z,10.90
2018-02-24T07:53:48.068Z,9.70
2018-02-24T07:56:22.694Z,8.93
2018-02-24T07:58:56.507Z,11.43
2018-02-24T08:01:30.291Z,10.10
2018-02-24T08:04:03.947Z,11.00
2018-02-24T08:06:37.628Z,10.47
2018-02-24T08:09:11.227Z,11.57
2018-02-24T08:11:44.885Z,10.70
2018-02-24T08:14:19.721Z,10.73
2018-02-24T08:16:53.425Z,10.40
2018-02-24T08:19:27.255Z,9.80
2018-02-24T08:22:00.796Z,10.97
2018-02-24T08:24:35.364Z,9.73
2018-02-24T08:27:09.496Z,9.83
2018-02-24T08:29:43.236Z,9.50
2018-02-24T08:32:17.006Z,9.27
2018-02-24T08:34:50.767Z,10.13
2018-02-24T08:37:24.360Z,8.97
2018-02-24T08:39:59.344Z,10.43
2018-02-24T08:42:33.675Z,11.17
2018-02-24T08:45:08.391Z,9.23
2018-02-24T08:47:43.023Z,8.30
2018-02-24T08:50:16.894Z,9.57
2018-02-24T08:52:51.236Z,9.87
2018-02-24T08:55:25.927Z,8.90
2018-02-24T08:57:59.977Z,8.70
2018-02-24T09:00:33.559Z,9.77
2018-02-24T09:03:07.216Z,6.20
2018-02-24T09:05:41.657Z,9.50
2018-02-24T09:08:15.679Z,8.10
2018-02-24T09:10:49.459Z,7.33
2018-02-24T09:13:23.265Z,7.43
2018-02-24T09:15:57.040Z,8.73
2018-02-24T09:18:31.655Z,9.10
2018-02-24T09:21:05.706Z,8.60
2018-02-24T09:23:39.495Z,7.80
2018-02-24T09:26:13.859Z,9.20
2018-02-24T09:28:47.857Z,8.80
2018-02-24T09:31:21.507Z,8.27
2018-02-24T09:33:55.234Z,9.97
2018-02-24T09:36:28.924Z,8.20
2018-02-24T09:39:02.696Z,7.63
2018-02-24T09:41:36.638Z,7.17
2018-02-24T09:44:11.223Z,8.20
2018-02-24T09:46:46.183Z,5.97
2018-02-24T09:49:20.052Z,6.63
2018-02-24T09:51:54.107Z,7.47
2018-02-24T09:54:28.094Z,7.40
2018-02-24T09:57:02.376Z,7.37
2018-02-24T09:59:36.828Z,8.13
2018-02-24T10:02:11.020Z,8.27
2018-02-24T10:04:44.980Z,7.73
2018-02-24T10:07:18.990Z,7.60
2018-02-24T10:09:53.000Z,6.53
2018-02-24T10:12:26.880Z,7.30
2018-02-24T10:15:00.821Z,8.20
2018-02-24T10:17:34.734Z,7.20
2018-02-24T10:20:09.096Z,8.43
2018-02-24T10:22:43.113Z,8.20
2018-02-24T10:25:17.628Z,7.00
2018-02-24T10:27:51.579Z,8.23
2018-02-24T10:30:26.200Z,6.60
2018-02-24T10:33:00.493Z,6.87
2018-02-24T10:35:34.070Z,7.00
2018-02-24T10:38:07.849Z,6.23
2018-02-24T10:40:41.579Z,5.90
2018-02-24T10:43:16.136Z,5.53
2018-02-24T10:45:50.067Z,6.13
2018-02-24T10:48:24.906Z,6.33
2018-02-24T10:50:58.469Z,4.53
2018-02-24T10:53:32.484Z,3.60
2018-02-24T10:56:07.197Z,4.37
2018-02-24T10:58:41.194Z,4.87
2018-02-24T11:01:15.093Z,5.03
2018-02-24T11:03:49.942Z,4.87
2018-02-24T11:06:24.696Z,3.77
2018-02-24T11:08:58.836Z,5.00
2018-02-24T11:11:32.689Z,4.70
2018-02-24T11:14:06.771Z,3.07
2018-02-24T11:16:40.612Z,3.50
2018-02-24T11:19:14.441Z,3.30
2018-02-24T11:21:49.022Z,4.10
2018-02-24T11:24:23.047Z,4.47
2018-02-24T11:26:56.820Z,3.70
2018-02-24T11:29:30.734Z,3.17
2018-02-24T11:32:04.627Z,2.80
2018-02-24T11:34:38.352Z,3.10
2018-02-24T11:37:12.617Z,3.60
2018-02-24T11:39:47.633Z,4.43
2018-02-24T11:42:21.500Z,3.17
2018-02-24T11:44:55.956Z,3.00
2018-02-24T11:47:30.180Z,3.60
2018-02-24T11:50:04.490Z,2.30
2018-02-24T11:52:38.609Z,2.63
2018-02-24T11:55:12.422Z,1.80
2018-02-24T11:57:46.054Z,2.00
2018-02-24T12:00:20.960Z,2.43
2018-02-24T12:02:54.797Z,4.67
2018-02-24T12:05:28.568Z,5.20
2018-02-24T12:08:02.704Z,9.67
2018-02-24T12:10:36.852Z,5.63
2018-02-24T12:13:12.132Z,3.40
2018-02-24T12:15:47.329Z,4.07
2018-02-24T12:18:20.990Z,5.23
2018-02-24T12:20:55.243Z,5.20
2018-02-24T12:23:28.857Z,5.90
2018-02-24T12:26:04.245Z,5.33
2018-02-24T12:28:39.730Z,4.30
2018-02-24T12:31:13.923Z,3.10
2018-02-24T12:33:48.488Z,4.93
2018-02-24T12:36:22.064Z,2.70
2018-02-24T12:38:56.685Z,3.40
2018-02-24T12:41:31.406Z,1.90
2018-02-24T12:44:05.195Z,2.43
2018-02-24T12:46:38.889Z,6.50
2018-02-24T12:49:12.647Z,5.53
2018-02-24T12:51:46.479Z,5.10
2018-02-24T12:54:20.183Z,5.67
2018-02-24T12:56:53.930Z,3.90
2018-02-24T12:59:27.786Z,2.60
2018-02-24T13:02:02.231Z,2.33
2018-02-24T13:04:36.287Z,3.20
2018-02-24T13:07:10.677Z,2.93
2018-02-24T13:09:44.667Z,4.13
2018-02-24T13:12:18.527Z,4.77
2018-02-24T13:14:52.131Z,4.60
2018-02-24T13:17:25.763Z,3.83
2018-02-24T13:19:59.819Z,6.33
2018-02-24T13:22:34.216Z,6.30
2018-02-24T13:25:09.279Z,2.80
2018-02-24T13:27:43.764Z,6.83
2018-02-24T13:30:17.622Z,7.47
2018-02-24T13:32:53.089Z,5.43
2018-02-24T13:35:28.169Z,4.63
2018-02-24T13:38:02.296Z,3.07
2018-02-24T13:40:36.497Z,8.73
2018-02-24T13:43:11.093Z,3.50
2018-02-24T13:45:44.794Z,6.07
2018-02-24T13:48:19.176Z,4.90
2018-02-24T13:50:53.123Z,3.20
2018-02-24T13:53:27.649Z,5.77
2018-02-24T13:56:01.334Z,2.23
2018-02-24T13:58:34.981Z,3.47
2018-02-24T14:01:08.583Z,1.70
2018-02-24T14:03:43.049Z,1.17
2018-02-24T14:06:18.357Z,4.63
2018-02-24T14:08:52.539Z,2.37
2018-02-24T14:11:26.334Z,3.50
2018-02-24T14:14:00.263Z,2.20
2018-02-24T14:16:34.765Z,7.00
2018-02-24T14:19:08.879Z,5.50
2018-02-24T14:21:42.609Z,6.70
2018-02-24T14:24:16.826Z,2.87
2018-02-24T14:26:50.628Z,2.83
2018-02-24T14:29:26.042Z,2.50
2018-02-24T14:32:01.118Z,4.53
2018-02-24T14:34:35.307Z,3.93
2018-02-24T14:37:09.124Z,10.27
2018-02-24T14:39:43.417Z,3.30
2018-02-24T14:42:17.227Z,2.60
2018-02-24T14:44:51.305Z,9.60
2018-02-24T14:47:25.145Z,5.90
2018-02-24T14:49:59.138Z,6.37
2018-02-24T14:52:34.218Z,2.57
2018-02-24T14:55:08.440Z,2.63
2018-02-24T14:57:43.268Z,3.57
2018-02-24T15:00:17.595Z,5.03
2018-02-24T15:02:51.324Z,4.00
2018-02-24T15:05:25.297Z,5.23
2018-02-24T15:07:59.791Z,6.00
2018-02-24T15:10:33.802Z,2.67
2018-02-24T15:13:07.420Z,3.50
2018-02-24T15:15:42.184Z,6.50
2018-02-24T15:18:16.040Z,11.97
2018-02-24T15:20:49.738Z,10.20
2018-02-24T15:23:23.449Z,16.17
2018-02-24T15:25:57.186Z,9.10
2018-02-24T15:28:31.191Z,7.83
2018-02-24T15:31:05.308Z,6.60
2018-02-24T15:33:39.634Z,5.30
2018-02-24T15:36:13.296Z,10.13
2018-02-24T15:38:47.029Z,7.87
2018-02-24T15:41:20.802Z,6.70
2018-02-24T15:43:55.376Z,6.03
2018-02-24T15:46:29.632Z,2.73
2018-02-24T15:49:03.309Z,10.10
2018-02-24T15:51:37.301Z,11.80
2018-02-24T15:54:11.160Z,4.87
2018-02-24T15:56:45.987Z,7.97
2018-02-24T15:59:19.924Z,4.20
2018-02-24T16:01:53.840Z,1.67
2018-02-24T16:04:28.334Z,4.97
2018-02-24T16:07:02.476Z,7.17
2018-02-24T16:09:36.295Z,3.37
2018-02-24T16:12:10.458Z,7.97
2018-02-24T16:14:44.432Z,8.93
2018-02-24T16:17:18.991Z,8.50
2018-02-24T16:19:52.898Z,4.13
2018-02-24T16:22:27.329Z,4.37
2018-02-24T16:25:01.741Z,7.80
2018-02-24T16:27:35.750Z,6.37
2018-02-24T16:30:10.164Z,5.67
2018-02-24T16:32:44.292Z,5.83
2018-02-24T16:35:18.182Z,13.03
2018-02-24T16:37:53.153Z,5.57
2018-02-24T16:40:26.855Z,6.53
2018-02-24T16:43:01.260Z,8.53
2018-02-24T16:45:35.500Z,6.63
2018-02-24T16:48:09.272Z,5.43
2018-02-24T16:50:43.101Z,4.03
2018-02-24T16:53:16.801Z,8.03
2018-02-24T16:55:50.304Z,6.73
2018-02-24T16:58:24.013Z,7.70
2018-02-24T17:00:57.583Z,8.70
2018-02-24T17:03:31.248Z,15.53
2018-02-24T17:06:05.835Z,17.13
2018-02-24T17:08:39.860Z,15.37
2018-02-24T17:11:13.764Z,9.97
2018-02-24T17:13:48.503Z,13.00
2018-02-24T17:16:22.349Z,11.57
2018-02-24T17:18:57.088Z,16.30
2018-02-24T17:21:31.121Z,15.60
2018-02-24T17:24:05.426Z,15.80
2018-02-24T17:26:39.387Z,19.63
2018-02-24T17:29:13.207Z,12.20
2018-02-24T17:31:47.870Z,12.63
2018-02-24T17:34:21.707Z,9.60
2018-02-24T17:36:55.571Z,10.43
2018-02-24T17:39:29.202Z,4.70
2018-02-24T17:42:02.980Z,6.77
2018-02-24T17:44:37.565Z,9.07
2018-02-24T17:47:12.061Z,10.83
2018-02-24T17:49:46.560Z,2.67
2018-02-24T17:52:21.088Z,2.27
2018-02-24T17:54:55.132Z,9.90
2018-02-24T17:57:29.732Z,9.93
2018-02-24T18:00:05.084Z,10.70
2018-02-24T18:02:38.684Z,8.70
2018-02-24T18:05:12.485Z,7.87
2018-02-24T18:07:46.970Z,8.50
2018-02-24T18:10:20.878Z,6.37
2018-02-24T18:12:54.552Z,13.20
2018-02-24T18:15:28.423Z,9.27
2018-02-24T18:18:02.490Z,10.23
2018-02-24T18:20:37.136Z,13.00
2018-02-24T18:23:11.215Z,9.37
2018-02-24T18:25:45.547Z,9.50
2018-02-24T18:28:19.610Z,5.20
2018-02-24T18:30:53.320Z,7.87
2018-02-24T18:33:27.647Z,11.90
2018-02-24T18:36:01.644Z,11.00
2018-02-24T18:38:35.651Z,11.10
2018-02-24T18:41:10.174Z,5.70
2018-02-24T18:43:44.837Z,6.93
2018-02-24T18:46:19.619Z,13.17
2018-02-24T18:48:54.320Z,10.03
2018-02-24T18:51:28.213Z,6.60
2018-02-24T18:54:01.736Z,7.00
2018-02-24T18:56:35.630Z,8.43
2018-02-24T18:59:09.127Z,7.87
2018-02-24T19:01:42.715Z,3.77
2018-02-24T19:04:16.411Z,17.03
2018-02-24T19:06:50.775Z,13.20
2018-02-24T19:09:25.374Z,6.30
2018-02-24T19:12:01.067Z,6.13
2018-02-24T19:14:36.401Z,6.70
2018-02-24T19:17:10.712Z,12.70
2018-02-24T19:19:44.905Z,7.77
2018-02-24T19:22:18.653Z,10.53
2018-02-24T19:24:52.712Z,9.00
2018-02-24T19:27:26.365Z,7.60
2018-02-24T19:30:00.158Z,7.57
2018-02-24T19:32:34.656Z,7.90
2018-02-24T19:35:08.585Z,5.03
2018-02-24T19:37:42.498Z,4.27
2018-02-24T19:40:16.947Z,7.37
2018-02-24T19:42:52.148Z,6.00
2018-02-24T19:45:26.971Z,7.57
2018-02-24T19:48:01.012Z,5.40
2018-02-24T19:50:34.823Z,3.03
2018-02-24T19:53:08.807Z,3.53
2018-02-24T19:55:43.759Z,3.37
2018-02-24T19:58:17.614Z,4.93
2018-02-24T20:00:52.120Z,6.23
2018-02-24T20:03:26.721Z,2.83
2018-02-24T20:06:01.080Z,4.27
2018-02-24T20:08:35.348Z,10.67
2018-02-24T20:11:10.090Z,6.13
2018-02-24T20:13:44.713Z,4.93
2018-02-24T20:16:19.257Z,3.77
2018-02-24T20:18:53.112Z,4.43
2018-02-24T20:21:27.500Z,4.23
2018-02-24T20:24:01.909Z,3.83
2018-02-24T20:26:36.191Z,3.33
2018-02-24T20:29:10.038Z,3.90
2018-02-24T20:31:44.476Z,3.03
2018-02-24T20:34:18.294Z,2.83
2018-02-24T20:36:53.032Z,3.70
2018-02-24T20:39:27.247Z,3.40
2018-02-24T20:42:01.169Z,4.53
2018-02-24T20:44:34.990Z,4.10
2018-02-24T20:47:08.878Z,4.27
2018-02-24T20:49:43.513Z,5.40
2018-02-24T20:52:17.243Z,6.10
2018-02-24T20:54:50.981Z,6.80
2018-02-24T20:57:24.668Z,4.63
2018-02-24T20:59:58.641Z,4.33
2018-02-24T21:02:32.284Z,3.53
2018-02-24T21:05:06.314Z,2.60
2018-02-24T21:07:40.609Z,3.30
2018-02-24T21:10:15.391Z,3.57
2018-02-24T21:12:49.391Z,4.30
2018-02-24T21:15:23.045Z,3.50
2018-02-24T21:17:56.865Z,3.23
2018-02-24T21:20:31.295Z,4.00
2018-02-24T21:23:05.917Z,3.33
2018-02-24T21:25:40.650Z,5.30
2018-02-24T21:28:14.408Z,5.53
2018-02-24T21:30:49.028Z,7.40
2018-02-24T21:33:23.006Z,7.63
2018-02-24T21:35:57.065Z,6.00
2018-02-24T21:38:31.038Z,5.20
2018-02-24T21:41:04.943Z,4.10
2018-02-24T21:43:38.746Z,5.70
2018-02-24T21:46:12.449Z,4.97
2018-02-24T21:48:46.097Z,6.60
2018-02-24T21:51:19.837Z,5.50
2018-02-24T21:53:53.666Z,4.90
2018-02-24T21:56:27.321Z,5.67
2018-02-24T21:59:01.793Z,3.60
2018-02-24T22:01:35.818Z,5.20
2018-02-24T22:04:09.413Z,3.20
2018-02-24T22:06:43.176Z,5.37
2018-02-24T22:09:17.999Z,5.53
2018-02-24T22:11:51.739Z,4.93
2018-02-24T22:14:26.049Z,4.57
2018-02-24T22:17:00.020Z,5.57
2018-02-24T22:19:34.570Z,4.33
2018-02-24T22:22:08.633Z,4.50
2018-02-24T22:24:42.493Z,5.83
2018-02-24T22:27:16.020Z,7.87
2018-02-24T22:29:50.399Z,4.93
2018-02-24T22:32:24.243Z,5.30
2018-02-24T22:34:58.719Z,5.17
2018-02-24T22:37:32.822Z,3.27
2018-02-24T22:40:06.646Z,4.30
2018-02-24T22:42:41.068Z,4.77
2018-02-24T22:45:15.116Z,4.00
2018-02-24T22:47:55.408Z,2.90
2018-02-24T22:50:29.243Z,3.87
2018-02-24T22:53:03.376Z,3.73
2018-02-24T22:55:37.491Z,5.07
2018-02-24T22:58:11.972Z,5.07
2018-02-24T23:00:47.128Z,5.20
2018-02-24T23:03:20.859Z,3.90
2018-02-24T23:05:55.106Z,5.83
2018-02-24T23:08:29.313Z,3.00
2018-02-24T23:11:03.561Z,2.60
2018-02-24T23:13:37.892Z,3.93
2018-02-24T23:16:13.003Z,3.07
2018-02-24T23:18:47.175Z,3.50
2018-02-24T23:21:20.860Z,3.50
2018-02-24T23:23:54.529Z,3.00
2018-02-24T23:26:29.059Z,3.77
2018-02-24T23:29:03.094Z,3.77
2018-02-24T23:31:36.940Z,2.60
2018-02-24T23:34:11.600Z,3.10
2018-02-24T23:36:45.352Z,2.53
2018-02-24T23:39:19.010Z,2.90
2018-02-24T23:41:52.798Z,3.17
2018-02-24T23:44:26.529Z,2.93
2018-02-24T23:47:01.059Z,3.77
2018-02-24T23:49:34.956Z,4.00
2018-02-24T23:52:09.603Z,3.00
2018-02-24T23:54:43.689Z,1.90
2018-02-24T23:57:18.344Z,2.73
2018-02-24T23:59:52.337Z,1.97
